sensor_id;sensor_type;location;lat;lon;timestamp;pressure;altitude;pressure_sealevel;temperature;humidity
42671;BME280;28283;55.426;37.756;2023-02-04T00:00:35;98852.84;;;-0.63;90.55
42671;BME280;28283;55.426;37.756;2023-02-04T00:05:38;98844.66;;;-0.60;90.58
42671;BME280;28283;55.426;37.756;2023-02-04T00:10:38;98835.38;;;-0.64;90.47
42671;BME280;28283;55.426;37.756;2023-02-04T00:15:39;98848.38;;;-0.53;90.36
42671;BME280;28283;55.426;37.756;2023-02-04T00:20:39;98852.97;;;-0.55;90.26
42671;BME280;28283;55.426;37.756;2023-02-04T00:25:40;98856.03;;;-0.60;90.28
42671;BME280;28283;55.426;37.756;2023-02-04T00:30:40;98827.88;;;-0.79;90.20
42671;BME280;28283;55.426;37.756;2023-02-04T00:35:41;98822.88;;;-0.82;90.26
42671;BME280;28283;55.426;37.756;2023-02-04T00:40:42;98865.50;;;-0.57;90.22
42671;BME280;28283;55.426;37.756;2023-02-04T00:45:42;98844.25;;;-0.65;90.03
42671;BME280;28283;55.426;37.756;2023-02-04T00:50:44;98864.22;;;-0.53;90.11
42671;BME280;28283;55.426;37.756;2023-02-04T00:55:45;98852.16;;;-0.65;89.79
42671;BME280;28283;55.426;37.756;2023-02-04T01:00:45;98844.97;;;-0.73;90.07
42671;BME280;28283;55.426;37.756;2023-02-04T01:05:46;98884.78;;;-0.47;90.27
42671;BME280;28283;55.426;37.756;2023-02-04T01:10:46;98897.00;;;-0.46;90.05
42671;BME280;28283;55.426;37.756;2023-02-04T01:15:47;98898.41;;;-0.51;89.76
42671;BME280;28283;55.426;37.756;2023-02-04T01:20:48;98907.59;;;-0.55;90.07
42671;BME280;28283;55.426;37.756;2023-02-04T01:25:48;98859.00;;;-0.92;90.48
42671;BME280;28283;55.426;37.756;2023-02-04T01:30:49;98902.31;;;-0.65;90.54
42671;BME280;28283;55.426;37.756;2023-02-04T01:35:50;98902.03;;;-0.62;90.78
42671;BME280;28283;55.426;37.756;2023-02-04T01:40:50;98875.66;;;-0.82;90.66
42671;BME280;28283;55.426;37.756;2023-02-04T01:45:51;98910.06;;;-0.54;90.26
42671;BME280;28283;55.426;37.756;2023-02-04T01:51:02;98917.31;;;-0.66;90.35
42671;BME280;28283;55.426;37.756;2023-02-04T01:56:43;98867.59;;;-0.90;89.99
42671;BME280;28283;55.426;37.756;2023-02-04T02:01:43;98915.38;;;-0.73;90.82
42671;BME280;28283;55.426;37.756;2023-02-04T02:06:56;98919.81;;;-0.74;90.63
42671;BME280;28283;55.426;37.756;2023-02-04T02:11:58;98927.88;;;-0.66;90.97
42671;BME280;28283;55.426;37.756;2023-02-04T02:17:01;98928.56;;;-0.64;91.09
42671;BME280;28283;55.426;37.756;2023-02-04T02:27:10;98938.16;;;-0.53;91.44
42671;BME280;28283;55.426;37.756;2023-02-04T02:32:11;98947.31;;;-0.37;91.26
42671;BME280;28283;55.426;37.756;2023-02-04T02:37:13;98949.81;;;-0.46;90.67
42671;BME280;28283;55.426;37.756;2023-02-04T02:42:15;98953.28;;;-0.45;90.84
42671;BME280;28283;55.426;37.756;2023-02-04T02:47:19;98958.88;;;-0.48;90.80
42671;BME280;28283;55.426;37.756;2023-02-04T02:52:20;98918.44;;;-0.78;90.81
42671;BME280;28283;55.426;37.756;2023-02-04T02:57:22;98964.28;;;-0.50;90.50
42671;BME280;28283;55.426;37.756;2023-02-04T03:02:23;98971.22;;;-0.49;90.19
42671;BME280;28283;55.426;37.756;2023-02-04T03:07:24;98961.78;;;-0.51;89.79
42671;BME280;28283;55.426;37.756;2023-02-04T03:12:24;98976.22;;;-0.46;89.51
42671;BME280;28283;55.426;37.756;2023-02-04T03:17:25;98961.34;;;-0.56;89.31
42671;BME280;28283;55.426;37.756;2023-02-04T03:22:26;98971.34;;;-0.50;89.35
42671;BME280;28283;55.426;37.756;2023-02-04T03:27:27;98957.75;;;-0.55;88.97
42671;BME280;28283;55.426;37.756;2023-02-04T03:32:28;98983.19;;;-0.45;88.83
42671;BME280;28283;55.426;37.756;2023-02-04T03:37:29;98986.66;;;-0.44;88.75
42671;BME280;28283;55.426;37.756;2023-02-04T03:42:29;98990.25;;;-0.55;88.76
42671;BME280;28283;55.426;37.756;2023-02-04T03:47:30;99001.81;;;-0.46;88.87
42671;BME280;28283;55.426;37.756;2023-02-04T03:52:31;98977.47;;;-0.60;89.00
42671;BME280;28283;55.426;37.756;2023-02-04T03:57:31;98980.53;;;-0.54;88.95
42671;BME280;28283;55.426;37.756;2023-02-04T04:02:32;99004.56;;;-0.38;88.40
42671;BME280;28283;55.426;37.756;2023-02-04T04:07:32;98992.47;;;-0.41;88.96
42671;BME280;28283;55.426;37.756;2023-02-04T04:12:33;99015.97;;;-0.28;88.73
42671;BME280;28283;55.426;37.756;2023-02-04T04:17:33;99017.22;;;-0.32;88.37
42671;BME280;28283;55.426;37.756;2023-02-04T04:22:34;98978.47;;;-0.61;88.56
42671;BME280;28283;55.426;37.756;2023-02-04T04:27:35;98996.38;;;-0.54;88.56
42671;BME280;28283;55.426;37.756;2023-02-04T04:32:36;99035.56;;;-0.40;88.94
42671;BME280;28283;55.426;37.756;2023-02-04T04:37:36;99034.44;;;-0.47;88.32
42671;BME280;28283;55.426;37.756;2023-02-04T04:42:37;99046.81;;;-0.48;88.70
42671;BME280;28283;55.426;37.756;2023-02-04T04:47:37;99045.44;;;-0.52;89.04
42671;BME280;28283;55.426;37.756;2023-02-04T04:52:38;99051.81;;;-0.54;88.95
42671;BME280;28283;55.426;37.756;2023-02-04T04:57:39;99046.97;;;-0.59;88.92
42671;BME280;28283;55.426;37.756;2023-02-04T05:02:39;99046.41;;;-0.63;89.21
42671;BME280;28283;55.426;37.756;2023-02-04T05:07:40;99057.34;;;-0.58;89.39
42671;BME280;28283;55.426;37.756;2023-02-04T05:12:40;99067.09;;;-0.58;89.14
42671;BME280;28283;55.426;37.756;2023-02-04T05:17:41;99072.38;;;-0.58;89.38
42671;BME280;28283;55.426;37.756;2023-02-04T05:22:42;99059.59;;;-0.63;89.29
42671;BME280;28283;55.426;37.756;2023-02-04T05:27:43;99079.03;;;-0.54;88.55
42671;BME280;28283;55.426;37.756;2023-02-04T05:32:43;99091.56;;;-0.36;88.18
42671;BME280;28283;55.426;37.756;2023-02-04T05:37:44;99089.91;;;-0.47;87.28
42671;BME280;28283;55.426;37.756;2023-02-04T05:42:45;99107.41;;;-0.46;87.75
42671;BME280;28283;55.426;37.756;2023-02-04T05:47:46;99104.34;;;-0.42;87.90
42671;BME280;28283;55.426;37.756;2023-02-04T05:52:46;99111.31;;;-0.41;87.83
42671;BME280;28283;55.426;37.756;2023-02-04T05:57:47;99117.84;;;-0.35;87.92
42671;BME280;28283;55.426;37.756;2023-02-04T06:02:50;99112.00;;;-0.39;88.10
42671;BME280;28283;55.426;37.756;2023-02-04T06:07:51;99132.19;;;-0.28;88.40
42671;BME280;28283;55.426;37.756;2023-02-04T06:12:51;99119.94;;;-0.29;88.21
42671;BME280;28283;55.426;37.756;2023-02-04T06:17:52;99129.66;;;-0.29;88.17
42671;BME280;28283;55.426;37.756;2023-02-04T06:22:53;99103.53;;;-0.42;88.30
42671;BME280;28283;55.426;37.756;2023-02-04T06:27:53;99155.28;;;-0.01;87.81
42671;BME280;28283;55.426;37.756;2023-02-04T06:32:56;99160.84;;;0.06;87.21
42671;BME280;28283;55.426;37.756;2023-02-04T06:37:57;99124.41;;;-0.20;87.17
42671;BME280;28283;55.426;37.756;2023-02-04T06:42:58;99137.19;;;-0.15;87.22
42671;BME280;28283;55.426;37.756;2023-02-04T06:47:58;99146.94;;;-0.06;86.62
42671;BME280;28283;55.426;37.756;2023-02-04T06:52:59;99169.06;;;0.03;85.95
42671;BME280;28283;55.426;37.756;2023-02-04T06:57:59;99161.00;;;-0.05;85.65
42671;BME280;28283;55.426;37.756;2023-02-04T07:03:00;99180.59;;;-0.08;85.74
42671;BME280;28283;55.426;37.756;2023-02-04T07:08:01;99188.13;;;-0.03;85.68
42671;BME280;28283;55.426;37.756;2023-02-04T07:13:01;99177.69;;;-0.05;85.90
42671;BME280;28283;55.426;37.756;2023-02-04T07:18:03;99190.06;;;0.05;84.76
42671;BME280;28283;55.426;37.756;2023-02-04T07:23:04;99192.88;;;0.13;83.79
42671;BME280;28283;55.426;37.756;2023-02-04T07:28:05;99187.28;;;0.06;82.99
42671;BME280;28283;55.426;37.756;2023-02-04T07:33:05;99204.66;;;-0.01;83.40
42671;BME280;28283;55.426;37.756;2023-02-04T07:38:06;99197.69;;;-0.12;83.88
42671;BME280;28283;55.426;37.756;2023-02-04T07:43:07;99204.38;;;-0.17;84.68
42671;BME280;28283;55.426;37.756;2023-02-04T07:48:08;99205.88;;;-0.15;85.38
42671;BME280;28283;55.426;37.756;2023-02-04T07:53:10;99154.13;;;-0.27;85.64
42671;BME280;28283;55.426;37.756;2023-02-04T07:58:10;99222.78;;;0.33;85.47
42671;BME280;28283;55.426;37.756;2023-02-04T08:03:11;99204.84;;;0.36;85.14
42671;BME280;28283;55.426;37.756;2023-02-04T08:08:11;99199.53;;;0.36;83.90
42671;BME280;28283;55.426;37.756;2023-02-04T08:13:12;99221.53;;;0.56;83.32
42671;BME280;28283;55.426;37.756;2023-02-04T08:18:13;99239.19;;;0.66;83.04
42671;BME280;28283;55.426;37.756;2023-02-04T08:23:13;99234.75;;;0.56;82.21
42671;BME280;28283;55.426;37.756;2023-02-04T08:28:14;99217.22;;;0.46;82.38
42671;BME280;28283;55.426;37.756;2023-02-04T08:33:15;99253.41;;;0.65;82.17
42671;BME280;28283;55.426;37.756;2023-02-04T08:38:15;99224.88;;;0.49;81.59
42671;BME280;28283;55.426;37.756;2023-02-04T08:43:16;99207.34;;;0.38;81.43
42671;BME280;28283;55.426;37.756;2023-02-04T08:48:19;99267.03;;;0.70;81.10
42671;BME280;28283;55.426;37.756;2023-02-04T08:53:19;99196.63;;;0.40;81.05
42671;BME280;28283;55.426;37.756;2023-02-04T08:58:20;99259.53;;;0.85;80.71
42671;BME280;28283;55.426;37.756;2023-02-04T09:03:21;99266.44;;;1.05;80.46
42671;BME280;28283;55.426;37.756;2023-02-04T09:08:25;99264.50;;;1.07;80.14
42671;BME280;28283;55.426;37.756;2023-02-04T09:13:25;99276.88;;;1.26;80.56
42671;BME280;28283;55.426;37.756;2023-02-04T09:18:26;99262.81;;;1.26;79.98
42671;BME280;28283;55.426;37.756;2023-02-04T09:23:27;99240.91;;;1.24;79.68
42671;BME280;28283;55.426;37.756;2023-02-04T09:28:28;99258.97;;;1.38;79.58
42671;BME280;28283;55.426;37.756;2023-02-04T09:33:28;99281.53;;;1.52;78.95
42671;BME280;28283;55.426;37.756;2023-02-04T09:38:29;99267.59;;;1.50;78.72
42671;BME280;28283;55.426;37.756;2023-02-04T09:43:33;99251.75;;;1.40;78.39
42671;BME280;28283;55.426;37.756;2023-02-04T09:48:36;99288.19;;;1.56;79.00
42671;BME280;28283;55.426;37.756;2023-02-04T09:53:37;99292.84;;;1.44;79.68
42671;BME280;28283;55.426;37.756;2023-02-04T09:58:38;99255.56;;;1.18;80.11
42671;BME280;28283;55.426;37.756;2023-02-04T10:03:40;99297.47;;;1.32;79.68
42671;BME280;28283;55.426;37.756;2023-02-04T10:08:47;99297.19;;;1.36;79.51
42671;BME280;28283;55.426;37.756;2023-02-04T10:13:50;99261.84;;;1.17;79.26
42671;BME280;28283;55.426;37.756;2023-02-04T10:18:51;99261.41;;;1.22;79.16
42671;BME280;28283;55.426;37.756;2023-02-04T10:23:57;99299.13;;;1.43;79.30
42671;BME280;28283;55.426;37.756;2023-02-04T10:29:00;99302.44;;;1.45;79.08
42671;BME280;28283;55.426;37.756;2023-02-04T10:39:18;99239.75;;;0.89;79.62
42671;BME280;28283;55.426;37.756;2023-02-04T10:44:31;99332.69;;;1.52;80.48
42671;BME280;28283;55.426;37.756;2023-02-04T10:49:32;99281.06;;;1.19;80.00
42671;BME280;28283;55.426;37.756;2023-02-04T10:54:36;99303.19;;;1.38;79.57
42671;BME280;28283;55.426;37.756;2023-02-04T10:59:37;99335.59;;;1.59;80.02
42671;BME280;28283;55.426;37.756;2023-02-04T11:04:38;99327.69;;;1.49;79.92
42671;BME280;28283;55.426;37.756;2023-02-04T11:09:42;99309.19;;;1.30;80.52
42671;BME280;28283;55.426;37.756;2023-02-04T11:14:54;99350.81;;;1.57;80.07
42671;BME280;28283;55.426;37.756;2023-02-04T11:26:30;99357.94;;;1.57;80.46
42671;BME280;28283;55.426;37.756;2023-02-04T11:41:59;99308.69;;;0.97;81.01
42671;BME280;28283;55.426;37.756;2023-02-04T11:47:01;99377.75;;;1.43;81.13
42671;BME280;28283;55.426;37.756;2023-02-04T11:52:12;99369.38;;;1.38;80.77
42671;BME280;28283;55.426;37.756;2023-02-04T11:57:13;99373.28;;;1.24;80.62
42671;BME280;28283;55.426;37.756;2023-02-04T12:02:17;99392.41;;;1.18;80.85
42671;BME280;28283;55.426;37.756;2023-02-04T12:07:27;99402.84;;;1.09;81.58
42671;BME280;28283;55.426;37.756;2023-02-04T12:12:29;99397.94;;;0.95;81.58
42671;BME280;28283;55.426;37.756;2023-02-04T12:17:30;99397.41;;;0.91;81.96
42671;BME280;28283;55.426;37.756;2023-02-04T12:22:31;99416.22;;;0.98;82.15
42671;BME280;28283;55.426;37.756;2023-02-04T12:27:34;99413.72;;;0.87;82.04
42671;BME280;28283;55.426;37.756;2023-02-04T12:32:34;99431.25;;;0.88;81.68
42671;BME280;28283;55.426;37.756;2023-02-04T12:37:35;99437.09;;;0.82;82.22
42671;BME280;28283;55.426;37.756;2023-02-04T12:42:35;99431.50;;;0.65;81.86
42671;BME280;28283;55.426;37.756;2023-02-04T12:47:36;99434.84;;;0.67;82.52
42671;BME280;28283;55.426;37.756;2023-02-04T12:52:37;99454.63;;;0.73;82.47
42671;BME280;28283;55.426;37.756;2023-02-04T12:57:38;99461.97;;;0.69;82.36
42671;BME280;28283;55.426;37.756;2023-02-04T13:02:39;99428.66;;;0.47;82.54
42671;BME280;28283;55.426;37.756;2023-02-04T13:07:42;99462.41;;;0.65;82.57
42671;BME280;28283;55.426;37.756;2023-02-04T13:12:43;99476.03;;;0.70;83.25
42671;BME280;28283;55.426;37.756;2023-02-04T13:17:43;99475.78;;;0.73;83.57
42671;BME280;28283;55.426;37.756;2023-02-04T13:22:44;99430.84;;;0.42;83.68
42671;BME280;28283;55.426;37.756;2023-02-04T13:27:44;99465.69;;;0.57;83.64
42671;BME280;28283;55.426;37.756;2023-02-04T13:32:45;99476.16;;;0.59;83.56
42671;BME280;28283;55.426;37.756;2023-02-04T13:37:46;99493.56;;;0.61;84.00
42671;BME280;28283;55.426;37.756;2023-02-04T13:42:47;99492.44;;;0.54;83.72
42671;BME280;28283;55.426;37.756;2023-02-04T13:47:47;99484.31;;;0.46;84.45
42671;BME280;28283;55.426;37.756;2023-02-04T13:52:48;99447.75;;;0.20;84.41
42671;BME280;28283;55.426;37.756;2023-02-04T13:57:49;99448.25;;;0.14;84.37
42671;BME280;28283;55.426;37.756;2023-02-04T14:02:49;99438.03;;;-0.01;84.25
42671;BME280;28283;55.426;37.756;2023-02-04T14:07:50;99502.38;;;0.41;84.92
42671;BME280;28283;55.426;37.756;2023-02-04T14:13:09;99498.69;;;0.22;84.39
42671;BME280;28283;55.426;37.756;2023-02-04T14:18:10;99499.75;;;0.19;85.00
42671;BME280;28283;55.426;37.756;2023-02-04T14:23:10;99526.59;;;0.36;85.23
42671;BME280;28283;55.426;37.756;2023-02-04T14:28:11;99512.84;;;0.21;84.98
42671;BME280;28283;55.426;37.756;2023-02-04T14:33:11;99537.19;;;0.36;85.20
42671;BME280;28283;55.426;37.756;2023-02-04T14:38:14;99544.53;;;0.32;85.38
42671;BME280;28283;55.426;37.756;2023-02-04T14:43:15;99538.50;;;0.30;85.62
42671;BME280;28283;55.426;37.756;2023-02-04T14:48:16;99533.75;;;0.24;85.70
42671;BME280;28283;55.426;37.756;2023-02-04T14:53:17;99547.44;;;0.29;85.40
42671;BME280;28283;55.426;37.756;2023-02-04T14:58:17;99564.22;;;0.49;85.77
42671;BME280;28283;55.426;37.756;2023-02-04T15:03:18;99562.31;;;0.30;85.34
42671;BME280;28283;55.426;37.756;2023-02-04T15:08:19;99571.09;;;0.31;85.34
42671;BME280;28283;55.426;37.756;2023-02-04T15:13:20;99506.69;;;-0.10;85.96
42671;BME280;28283;55.426;37.756;2023-02-04T15:18:21;99571.22;;;0.29;85.94
42671;BME280;28283;55.426;37.756;2023-02-04T15:23:21;99565.28;;;0.16;85.80
42671;BME280;28283;55.426;37.756;2023-02-04T15:28:23;99562.13;;;0.22;86.04
42671;BME280;28283;55.426;37.756;2023-02-04T15:33:23;99581.84;;;0.39;86.35
42671;BME280;28283;55.426;37.756;2023-02-04T15:38:24;99582.16;;;0.25;86.06
42671;BME280;28283;55.426;37.756;2023-02-04T15:43:24;99591.78;;;0.26;86.08
42671;BME280;28283;55.426;37.756;2023-02-04T15:48:25;99584.63;;;0.16;86.16
42671;BME280;28283;55.426;37.756;2023-02-04T15:53:27;99613.06;;;0.24;86.29
42671;BME280;28283;55.426;37.756;2023-02-04T15:58:28;99607.06;;;0.22;86.34
42671;BME280;28283;55.426;37.756;2023-02-04T16:03:28;99607.56;;;0.16;86.78
42671;BME280;28283;55.426;37.756;2023-02-04T16:08:29;99631.00;;;0.21;86.74
42671;BME280;28283;55.426;37.756;2023-02-04T16:13:30;99614.91;;;0.12;87.12
42671;BME280;28283;55.426;37.756;2023-02-04T16:18:30;99646.59;;;0.24;86.76
42671;BME280;28283;55.426;37.756;2023-02-04T16:23:31;99649.25;;;0.24;87.30
42671;BME280;28283;55.426;37.756;2023-02-04T16:28:32;99648.97;;;0.27;87.12
42671;BME280;28283;55.426;37.756;2023-02-04T16:33:33;99654.53;;;0.24;87.17
42671;BME280;28283;55.426;37.756;2023-02-04T16:38:33;99649.25;;;0.24;87.18
42671;BME280;28283;55.426;37.756;2023-02-04T16:43:36;99662.78;;;0.30;87.11
42671;BME280;28283;55.426;37.756;2023-02-04T16:48:37;99645.69;;;0.13;87.16
42671;BME280;28283;55.426;37.756;2023-02-04T16:53:38;99665.13;;;0.24;87.30
42671;BME280;28283;55.426;37.756;2023-02-04T16:58:39;99678.91;;;0.27;87.61
42671;BME280;28283;55.426;37.756;2023-02-04T17:03:39;99676.28;;;0.27;87.07
42671;BME280;28283;55.426;37.756;2023-02-04T17:08:40;99672.34;;;0.22;87.48
42671;BME280;28283;55.426;37.756;2023-02-04T17:13:41;99684.91;;;0.29;87.99
42671;BME280;28283;55.426;37.756;2023-02-04T17:18:42;99677.75;;;0.20;87.77
42671;BME280;28283;55.426;37.756;2023-02-04T17:23:43;99674.53;;;0.16;87.64
42671;BME280;28283;55.426;37.756;2023-02-04T17:28:44;99703.88;;;0.34;87.58
42671;BME280;28283;55.426;37.756;2023-02-04T17:33:45;99709.19;;;0.34;88.22
42671;BME280;28283;55.426;37.756;2023-02-04T17:38:46;99708.31;;;0.34;87.84
42671;BME280;28283;55.426;37.756;2023-02-04T17:43:47;99686.50;;;0.21;88.00
42671;BME280;28283;55.426;37.756;2023-02-04T17:48:48;99719.28;;;0.29;87.85
42671;BME280;28283;55.426;37.756;2023-02-04T17:53:50;99706.56;;;0.23;87.58
42671;BME280;28283;55.426;37.756;2023-02-04T17:58:53;99721.69;;;0.32;88.42
42671;BME280;28283;55.426;37.756;2023-02-04T18:03:54;99704.66;;;0.25;88.12
42671;BME280;28283;55.426;37.756;2023-02-04T18:08:55;99714.13;;;0.28;88.57
42671;BME280;28283;55.426;37.756;2023-02-04T18:14:09;99724.00;;;0.26;88.36
42671;BME280;28283;55.426;37.756;2023-02-04T18:19:20;99716.06;;;0.26;88.48
42671;BME280;28283;55.426;37.756;2023-02-04T18:24:25;99718.94;;;0.23;88.38
42671;BME280;28283;55.426;37.756;2023-02-04T18:29:32;99708.19;;;0.14;88.37
42671;BME280;28283;55.426;37.756;2023-02-04T18:34:42;99741.03;;;0.33;88.46
42671;BME280;28283;55.426;37.756;2023-02-04T18:39:43;99718.34;;;0.19;88.57
42671;BME280;28283;55.426;37.756;2023-02-04T18:44:44;99729.28;;;0.26;88.77
42671;BME280;28283;55.426;37.756;2023-02-04T18:49:45;99752.06;;;0.38;88.54
42671;BME280;28283;55.426;37.756;2023-02-04T18:54:50;99757.94;;;0.42;88.73
42671;BME280;28283;55.426;37.756;2023-02-04T18:59:52;99766.25;;;0.37;88.94
42671;BME280;28283;55.426;37.756;2023-02-04T19:04:52;99770.72;;;0.36;88.57
42671;BME280;28283;55.426;37.756;2023-02-04T19:09:55;99777.66;;;0.37;88.46
42671;BME280;28283;55.426;37.756;2023-02-04T19:14:58;99762.22;;;0.22;88.74
42671;BME280;28283;55.426;37.756;2023-02-04T19:20:18;99782.22;;;0.47;89.18
42671;BME280;28283;55.426;37.756;2023-02-04T19:35:38;99795.47;;;0.35;88.96
42671;BME280;28283;55.426;37.756;2023-02-04T19:40:40;99792.03;;;0.24;88.75
42671;BME280;28283;55.426;37.756;2023-02-04T19:45:44;99791.28;;;0.33;88.94
42671;BME280;28283;55.426;37.756;2023-02-04T19:50:45;99792.63;;;0.27;89.18
42671;BME280;28283;55.426;37.756;2023-02-04T19:55:49;99790.13;;;0.14;89.03
42671;BME280;28283;55.426;37.756;2023-02-04T20:00:54;99810.06;;;0.18;89.21
42671;BME280;28283;55.426;37.756;2023-02-04T20:06:13;99812.81;;;0.17;89.36
42671;BME280;28283;55.426;37.756;2023-02-04T20:11:33;99821.25;;;0.11;89.16
42671;BME280;28283;55.426;37.756;2023-02-04T20:21:45;99813.19;;;0.01;89.96
42671;BME280;28283;55.426;37.756;2023-02-04T20:26:52;99819.31;;;0.13;90.36
42671;BME280;28283;55.426;37.756;2023-02-04T20:31:52;99836.09;;;0.23;89.89
42671;BME280;28283;55.426;37.756;2023-02-04T20:36:55;99835.41;;;0.21;90.34
42671;BME280;28283;55.426;37.756;2023-02-04T20:42:16;99795.31;;;-0.07;90.05
42671;BME280;28283;55.426;37.756;2023-02-04T20:47:23;99847.16;;;0.28;89.98
42671;BME280;28283;55.426;37.756;2023-02-04T20:57:40;99852.44;;;0.28;89.76
42671;BME280;28283;55.426;37.756;2023-02-04T21:02:41;99849.31;;;0.23;90.02
42671;BME280;28283;55.426;37.756;2023-02-04T21:07:41;99854.16;;;0.18;89.87
42671;BME280;28283;55.426;37.756;2023-02-04T21:12:42;99825.69;;;-0.01;90.09
42671;BME280;28283;55.426;37.756;2023-02-04T21:17:45;99861.63;;;0.13;90.29
42671;BME280;28283;55.426;37.756;2023-02-04T21:22:45;99850.78;;;0.05;90.44
42671;BME280;28283;55.426;37.756;2023-02-04T21:27:46;99872.78;;;0.16;90.54
42671;BME280;28283;55.426;37.756;2023-02-04T21:32:48;99858.00;;;0.14;90.94
42671;BME280;28283;55.426;37.756;2023-02-04T21:37:50;99870.63;;;0.22;90.85
42671;BME280;28283;55.426;37.756;2023-02-04T21:42:51;99883.69;;;0.23;90.62
42671;BME280;28283;55.426;37.756;2023-02-04T21:47:52;99888.88;;;0.25;90.52
42671;BME280;28283;55.426;37.756;2023-02-04T21:52:53;99884.19;;;0.28;90.75
42671;BME280;28283;55.426;37.756;2023-02-04T21:57:53;99896.34;;;0.31;90.89
42671;BME280;28283;55.426;37.756;2023-02-04T22:02:54;99876.25;;;0.17;90.70
42671;BME280;28283;55.426;37.756;2023-02-04T22:07:55;99912.78;;;0.34;90.70
42671;BME280;28283;55.426;37.756;2023-02-04T22:12:55;99897.28;;;0.30;90.52
42671;BME280;28283;55.426;37.756;2023-02-04T22:17:56;99900.91;;;0.29;90.99
42671;BME280;28283;55.426;37.756;2023-02-04T22:22:56;99864.13;;;0.03;90.09
42671;BME280;28283;55.426;37.756;2023-02-04T22:27:57;99898.63;;;0.13;90.12
42671;BME280;28283;55.426;37.756;2023-02-04T22:32:57;99925.41;;;0.19;91.22
42671;BME280;28283;55.426;37.756;2023-02-04T22:38:00;99913.63;;;0.01;90.44
42671;BME280;28283;55.426;37.756;2023-02-04T22:43:01;99932.97;;;0.02;90.58
42671;BME280;28283;55.426;37.756;2023-02-04T22:48:03;99928.78;;;-0.01;91.03
42671;BME280;28283;55.426;37.756;2023-02-04T22:53:04;99929.13;;;-0.06;90.80
42671;BME280;28283;55.426;37.756;2023-02-04T22:58:05;99954.25;;;0.00;91.31
42671;BME280;28283;55.426;37.756;2023-02-04T23:03:05;99951.94;;;-0.05;91.25
42671;BME280;28283;55.426;37.756;2023-02-04T23:08:06;99954.72;;;-0.06;91.27
42671;BME280;28283;55.426;37.756;2023-02-04T23:13:06;99958.19;;;-0.06;91.83
42671;BME280;28283;55.426;37.756;2023-02-04T23:18:07;99964.94;;;-0.02;92.18
42671;BME280;28283;55.426;37.756;2023-02-04T23:23:08;99957.63;;;0.02;92.28
42671;BME280;28283;55.426;37.756;2023-02-04T23:28:16;99967.22;;;0.03;92.39
42671;BME280;28283;55.426;37.756;2023-02-04T23:33:17;99949.41;;;-0.06;92.04
42671;BME280;28283;55.426;37.756;2023-02-04T23:38:17;99972.50;;;0.03;92.14
42671;BME280;28283;55.426;37.756;2023-02-04T23:43:18;99914.78;;;-0.37;91.66
42671;BME280;28283;55.426;37.756;2023-02-04T23:48:19;99967.91;;;-0.06;91.80
42671;BME280;28283;55.426;37.756;2023-02-04T23:53:19;99974.91;;;-0.05;92.01
42671;BME280;28283;55.426;37.756;2023-02-04T23:58:20;99972.50;;;-0.08;91.96
